Jones Prairie, Texas
Current Conditions -  °F | °C
As of 7:15 AM on Tuesday 21 Oct 2014 (Local Time) from KT35 Reporting Station
Haze Haze  
Wind Chill: 57°   Ceiling: Unl
Heat Index: 57°   Visibility: 4mi
Dew Point: 56°   Wind: 0mph
Humidity: 98%   Direction: NA
Pressure: 30.07"   Gusts: NA
Location:  30.8332°N, 96.9826°W
Report Text: KT35 211215Z AUTO 00000KT 4SM BR CLR 14/14 A3007 RMK AO2 T01390136
Loading
Personal Weather Stations






























Interactive Weather Map
Tropical Storm Tracking
New forecast layout! Learn more

10-Day Weather Forecast

Advertisements
Track Severe Weather on mobile